Terminal Aerodrome Forecast
Issued by NWS Tampa Bay Area, FL

Home | Current Version | Previous Version | Text Only | Print | Product List | Glossary On
Versions: 1 2 3 4 5 6 7 8 9 10 11 12 13 14
000
FTUS42 KTBW 212300
TAFSRQ
TAF
KSRQ 212336Z 2200/2224 16010KT P6SM BKN070 OVC100
     FM220200 15007KT P6SM VCSH BKN050 OVC100
     FM220800 15007KT P6SM VCSH BKN020 OVC070
     FM221600 18012KT P6SM SCT025 BKN090=

USA.gov is the U.S. government's official web portal to all federal, state and local government web resources and services.